sensor_id;sensor_type;location;lat;lon;timestamp;pressure;altitude;pressure_sealevel;temperature;humidity
34500;BME280;20745;50.882;6.962;2023-01-26T00:01:29;101922.75;;;1.87;100.00
34500;BME280;20745;50.882;6.962;2023-01-26T00:03:56;101916.16;;;1.65;100.00
34500;BME280;20745;50.882;6.962;2023-01-26T00:06:23;101914.28;;;1.53;100.00
34500;BME280;20745;50.882;6.962;2023-01-26T00:08:50;101911.81;;;1.64;100.00
34500;BME280;20745;50.882;6.962;2023-01-26T00:11:18;101909.44;;;1.59;100.00
34500;BME280;20745;50.882;6.962;2023-01-26T00:13:45;101905.06;;;1.58;100.00
34500;BME280;20745;50.882;6.962;2023-01-26T00:16:13;101903.72;;;1.51;100.00
34500;BME280;20745;50.882;6.962;2023-01-26T00:18:40;101911.53;;;1.54;100.00
34500;BME280;20745;50.882;6.962;2023-01-26T00:21:10;101897.34;;;1.54;100.00
34500;BME280;20745;50.882;6.962;2023-01-26T00:23:37;101901.06;;;1.51;100.00
34500;BME280;20745;50.882;6.962;2023-01-26T00:26:04;101900.97;;;1.53;100.00
34500;BME280;20745;50.882;6.962;2023-01-26T00:28:31;101894.13;;;1.49;100.00
34500;BME280;20745;50.882;6.962;2023-01-26T00:31:02;101893.28;;;1.48;100.00
34500;BME280;20745;50.882;6.962;2023-01-26T00:33:29;101896.22;;;1.58;100.00
34500;BME280;20745;50.882;6.962;2023-01-26T00:35:55;101879.69;;;1.53;100.00
34500;BME280;20745;50.882;6.962;2023-01-26T00:38:22;101879.78;;;1.51;100.00
34500;BME280;20745;50.882;6.962;2023-01-26T00:40:50;101878.16;;;1.49;100.00
34500;BME280;20745;50.882;6.962;2023-01-26T00:43:20;101876.25;;;1.51;100.00
34500;BME280;20745;50.882;6.962;2023-01-26T00:45:48;101873.09;;;1.58;100.00
34500;BME280;20745;50.882;6.962;2023-01-26T00:48:17;101864.75;;;1.50;100.00
34500;BME280;20745;50.882;6.962;2023-01-26T00:51:09;101873.09;;;1.58;100.00
34500;BME280;20745;50.882;6.962;2023-01-26T00:53:37;101870.28;;;1.47;100.00
34500;BME280;20745;50.882;6.962;2023-01-26T00:56:08;101860.78;;;1.43;100.00
34500;BME280;20745;50.882;6.962;2023-01-26T00:58:35;101868.00;;;1.41;100.00
34500;BME280;20745;50.882;6.962;2023-01-26T01:01:08;101868.09;;;1.40;100.00
34500;BME280;20745;50.882;6.962;2023-01-26T01:03:38;101871.63;;;1.40;100.00
34500;BME280;20745;50.882;6.962;2023-01-26T01:06:05;101872.53;;;1.39;100.00
34500;BME280;20745;50.882;6.962;2023-01-26T01:08:35;101857.63;;;1.37;100.00
34500;BME280;20745;50.882;6.962;2023-01-26T01:11:10;101861.34;;;1.34;100.00
34500;BME280;20745;50.882;6.962;2023-01-26T01:13:39;101861.25;;;1.36;100.00
34500;BME280;20745;50.882;6.962;2023-01-26T01:16:11;101859.91;;;1.43;100.00
34500;BME280;20745;50.882;6.962;2023-01-26T01:18:40;101858.13;;;1.43;100.00
34500;BME280;20745;50.882;6.962;2023-01-26T01:21:10;101858.84;;;1.45;100.00
34500;BME280;20745;50.882;6.962;2023-01-26T01:23:53;101856.00;;;1.48;100.00
34500;BME280;20745;50.882;6.962;2023-01-26T01:26:20;101857.06;;;1.46;100.00
34500;BME280;20745;50.882;6.962;2023-01-26T01:28:46;101852.78;;;1.43;100.00
34500;BME280;20745;50.882;6.962;2023-01-26T01:31:14;101849.25;;;1.43;100.00
34500;BME280;20745;50.882;6.962;2023-01-26T01:33:41;101846.41;;;1.46;100.00
34500;BME280;20745;50.882;6.962;2023-01-26T01:36:13;101847.47;;;1.43;100.00
34500;BME280;20745;50.882;6.962;2023-01-26T01:38:40;101851.06;;;1.42;100.00
34500;BME280;20745;50.882;6.962;2023-01-26T01:41:08;101841.47;;;1.40;100.00
34500;BME280;20745;50.882;6.962;2023-01-26T01:43:35;101837.56;;;1.45;100.00
34500;BME280;20745;50.882;6.962;2023-01-26T01:46:10;101836.81;;;1.43;100.00
34500;BME280;20745;50.882;6.962;2023-01-26T01:48:44;101831.28;;;1.46;100.00
34500;BME280;20745;50.882;6.962;2023-01-26T01:51:36;101837.00;;;1.54;100.00
34500;BME280;20745;50.882;6.962;2023-01-26T01:54:28;101837.00;;;1.54;100.00
34500;BME280;20745;50.882;6.962;2023-01-26T01:57:15;101833.19;;;1.58;100.00
34500;BME280;20745;50.882;6.962;2023-01-26T01:59:54;101830.88;;;1.66;100.00
34500;BME280;20745;50.882;6.962;2023-01-26T02:02:22;101828.25;;;1.38;100.00
34500;BME280;20745;50.882;6.962;2023-01-26T02:04:48;101820.25;;;1.52;100.00
34500;BME280;20745;50.882;6.962;2023-01-26T02:07:15;101818.13;;;1.71;100.00
34500;BME280;20745;50.882;6.962;2023-01-26T02:09:42;101811.28;;;1.67;100.00
34500;BME280;20745;50.882;6.962;2023-01-26T02:12:30;101811.66;;;1.75;100.00
34500;BME280;20745;50.882;6.962;2023-01-26T02:14:58;101805.78;;;1.70;100.00
34500;BME280;20745;50.882;6.962;2023-01-26T02:17:40;101777.59;;;1.40;100.00
34500;BME280;20745;50.882;6.962;2023-01-26T02:27:58;101805.53;;;1.47;100.00
34500;BME280;20745;50.882;6.962;2023-01-26T02:30:35;101803.16;;;1.42;100.00
34500;BME280;20745;50.882;6.962;2023-01-26T02:33:04;101797.00;;;1.42;100.00
34500;BME280;20745;50.882;6.962;2023-01-26T02:35:30;101798.22;;;1.36;100.00
34500;BME280;20745;50.882;6.962;2023-01-26T02:38:13;101798.78;;;1.41;100.00
34500;BME280;20745;50.882;6.962;2023-01-26T02:40:49;101790.81;;;1.41;100.00
34500;BME280;20745;50.882;6.962;2023-01-26T02:43:20;101784.56;;;1.55;100.00
34500;BME280;20745;50.882;6.962;2023-01-26T02:45:47;101777.63;;;1.66;100.00
34500;BME280;20745;50.882;6.962;2023-01-26T02:48:13;101773.25;;;1.65;100.00
34500;BME280;20745;50.882;6.962;2023-01-26T02:51:00;101771.25;;;1.69;100.00
34500;BME280;20745;50.882;6.962;2023-01-26T02:53:26;101770.72;;;1.76;100.00
34500;BME280;20745;50.882;6.962;2023-01-26T02:55:52;101768.06;;;1.76;100.00
34500;BME280;20745;50.882;6.962;2023-01-26T02:58:19;101768.84;;;1.78;100.00
34500;BME280;20745;50.882;6.962;2023-01-26T03:00:45;101761.34;;;1.71;100.00
34500;BME280;20745;50.882;6.962;2023-01-26T03:03:21;101758.94;;;1.80;100.00
34500;BME280;20745;50.882;6.962;2023-01-26T03:05:49;101756.22;;;1.94;100.00
34500;BME280;20745;50.882;6.962;2023-01-26T03:08:17;101765.31;;;1.78;100.00
34500;BME280;20745;50.882;6.962;2023-01-26T03:10:43;101760.50;;;1.70;100.00
34500;BME280;20745;50.882;6.962;2023-01-26T03:13:12;101758.34;;;1.63;100.00
34500;BME280;20745;50.882;6.962;2023-01-26T03:15:43;101753.97;;;1.62;100.00
34500;BME280;20745;50.882;6.962;2023-01-26T03:18:18;101751.75;;;1.68;100.00
34500;BME280;20745;50.882;6.962;2023-01-26T03:21:04;101757.50;;;1.75;100.00
34500;BME280;20745;50.882;6.962;2023-01-26T03:23:50;101752.91;;;1.64;100.00
34500;BME280;20745;50.882;6.962;2023-01-26T03:26:35;101754.91;;;1.61;100.00
34500;BME280;20745;50.882;6.962;2023-01-26T03:29:20;101745.03;;;1.63;100.00
34500;BME280;20745;50.882;6.962;2023-01-26T03:31:47;101749.69;;;1.59;100.00
34500;BME280;20745;50.882;6.962;2023-01-26T03:34:13;101700.31;;;1.41;100.00
34500;BME280;20745;50.882;6.962;2023-01-26T03:36:40;101744.16;;;1.62;100.00
34500;BME280;20745;50.882;6.962;2023-01-26T03:39:06;101750.94;;;1.54;100.00
34500;BME280;20745;50.882;6.962;2023-01-26T03:41:37;101747.44;;;1.53;100.00
34500;BME280;20745;50.882;6.962;2023-01-26T03:44:26;101742.59;;;1.46;100.00
34500;BME280;20745;50.882;6.962;2023-01-26T03:47:12;101745.25;;;1.46;100.00
34500;BME280;20745;50.882;6.962;2023-01-26T03:49:57;101745.50;;;1.55;100.00
34500;BME280;20745;50.882;6.962;2023-01-26T03:52:42;101736.41;;;1.45;100.00
34500;BME280;20745;50.882;6.962;2023-01-26T03:55:27;101737.91;;;1.63;100.00
34500;BME280;20745;50.882;6.962;2023-01-26T03:58:22;101740.44;;;1.65;100.00
34500;BME280;20745;50.882;6.962;2023-01-26T04:00:50;101738.09;;;1.60;100.00
34500;BME280;20745;50.882;6.962;2023-01-26T04:03:16;101740.38;;;1.52;100.00
34500;BME280;20745;50.882;6.962;2023-01-26T04:06:02;101739.56;;;1.52;100.00
34500;BME280;20745;50.882;6.962;2023-01-26T04:08:50;101742.13;;;1.53;100.00
34500;BME280;20745;50.882;6.962;2023-01-26T04:11:18;101736.78;;;1.53;100.00
34500;BME280;20745;50.882;6.962;2023-01-26T04:13:46;101691.13;;;1.33;100.00
34500;BME280;20745;50.882;6.962;2023-01-26T04:16:34;101734.47;;;1.61;100.00
34500;BME280;20745;50.882;6.962;2023-01-26T04:19:48;101727.66;;;1.57;100.00
34500;BME280;20745;50.882;6.962;2023-01-26T04:22:42;101723.06;;;1.59;100.00
34500;BME280;20745;50.882;6.962;2023-01-26T04:25:13;101733.22;;;1.67;100.00
34500;BME280;20745;50.882;6.962;2023-01-26T04:27:40;101731.50;;;1.66;100.00
34500;BME280;20745;50.882;6.962;2023-01-26T04:30:09;101726.38;;;1.63;100.00
34500;BME280;20745;50.882;6.962;2023-01-26T04:32:40;101724.47;;;1.65;100.00
34500;BME280;20745;50.882;6.962;2023-01-26T04:35:20;101725.13;;;1.68;100.00
34500;BME280;20745;50.882;6.962;2023-01-26T04:37:47;101724.94;;;1.71;100.00
34500;BME280;20745;50.882;6.962;2023-01-26T04:40:35;101720.38;;;1.59;100.00
34500;BME280;20745;50.882;6.962;2023-01-26T04:43:03;101717.00;;;1.57;100.00
34500;BME280;20745;50.882;6.962;2023-01-26T04:45:33;101718.59;;;1.60;100.00
34500;BME280;20745;50.882;6.962;2023-01-26T04:48:00;101731.47;;;1.53;100.00
34500;BME280;20745;50.882;6.962;2023-01-26T04:50:27;101731.00;;;1.47;100.00
34500;BME280;20745;50.882;6.962;2023-01-26T04:52:58;101721.00;;;1.50;100.00
34500;BME280;20745;50.882;6.962;2023-01-26T04:55:24;101734.00;;;1.55;100.00
34500;BME280;20745;50.882;6.962;2023-01-26T04:57:51;101725.56;;;1.48;100.00
34500;BME280;20745;50.882;6.962;2023-01-26T05:00:17;101728.56;;;1.56;100.00
34500;BME280;20745;50.882;6.962;2023-01-26T05:02:47;101726.59;;;1.60;100.00
34500;BME280;20745;50.882;6.962;2023-01-26T05:05:13;101721.94;;;1.63;100.00
34500;BME280;20745;50.882;6.962;2023-01-26T05:07:41;101723.44;;;1.67;100.00
34500;BME280;20745;50.882;6.962;2023-01-26T05:10:08;101726.88;;;1.55;100.00
34500;BME280;20745;50.882;6.962;2023-01-26T05:12:35;101717.19;;;1.54;100.00
34500;BME280;20745;50.882;6.962;2023-01-26T05:15:03;101728.56;;;1.56;100.00
34500;BME280;20745;50.882;6.962;2023-01-26T05:17:29;101734.41;;;1.49;100.00
34500;BME280;20745;50.882;6.962;2023-01-26T05:19:56;101729.72;;;1.52;100.00
34500;BME280;20745;50.882;6.962;2023-01-26T05:22:25;101732.25;;;1.41;100.00
34500;BME280;20745;50.882;6.962;2023-01-26T05:24:51;101745.06;;;1.35;100.00
34500;BME280;20745;50.882;6.962;2023-01-26T05:27:17;101736.84;;;1.25;100.00
34500;BME280;20745;50.882;6.962;2023-01-26T05:29:50;101735.88;;;1.26;100.00
34500;BME280;20745;50.882;6.962;2023-01-26T05:32:17;101740.06;;;1.30;100.00
34500;BME280;20745;50.882;6.962;2023-01-26T05:34:44;101731.31;;;1.28;100.00
34500;BME280;20745;50.882;6.962;2023-01-26T05:37:12;101732.00;;;1.32;100.00
34500;BME280;20745;50.882;6.962;2023-01-26T05:39:42;101737.00;;;1.36;100.00
34500;BME280;20745;50.882;6.962;2023-01-26T05:42:10;101739.13;;;1.31;100.00
34500;BME280;20745;50.882;6.962;2023-01-26T05:44:36;101741.78;;;1.31;100.00
34500;BME280;20745;50.882;6.962;2023-01-26T05:47:03;101740.44;;;1.38;100.00
34500;BME280;20745;50.882;6.962;2023-01-26T05:49:29;101746.53;;;1.40;100.00
34500;BME280;20745;50.882;6.962;2023-01-26T05:51:57;101729.69;;;1.40;100.00
34500;BME280;20745;50.882;6.962;2023-01-26T05:54:24;101737.38;;;1.44;100.00
34500;BME280;20745;50.882;6.962;2023-01-26T05:56:52;101730.34;;;1.43;100.00
34500;BME280;20745;50.882;6.962;2023-01-26T05:59:28;101732.34;;;1.40;100.00
34500;BME280;20745;50.882;6.962;2023-01-26T06:01:58;101734.91;;;1.41;100.00
34500;BME280;20745;50.882;6.962;2023-01-26T06:04:25;101735.97;;;1.39;100.00
34500;BME280;20745;50.882;6.962;2023-01-26T06:06:52;101737.50;;;1.29;100.00
34500;BME280;20745;50.882;6.962;2023-01-26T06:09:23;101735.13;;;1.24;100.00
34500;BME280;20745;50.882;6.962;2023-01-26T06:11:53;101737.03;;;1.22;100.00
34500;BME280;20745;50.882;6.962;2023-01-26T06:14:22;101735.78;;;1.28;100.00
34500;BME280;20745;50.882;6.962;2023-01-26T06:16:48;101740.06;;;1.30;100.00
34500;BME280;20745;50.882;6.962;2023-01-26T06:19:16;101744.25;;;1.34;100.00
34500;BME280;20745;50.882;6.962;2023-01-26T06:21:42;101748.69;;;1.34;100.00
34500;BME280;20745;50.882;6.962;2023-01-26T06:24:09;101745.41;;;1.30;100.00
34500;BME280;20745;50.882;6.962;2023-01-26T06:26:36;101743.47;;;1.32;100.00
34500;BME280;20745;50.882;6.962;2023-01-26T06:29:02;101751.56;;;1.31;100.00
34500;BME280;20745;50.882;6.962;2023-01-26T06:31:30;101749.56;;;1.34;100.00
34500;BME280;20745;50.882;6.962;2023-01-26T06:33:57;101750.91;;;1.27;100.00
34500;BME280;20745;50.882;6.962;2023-01-26T06:36:23;101753.56;;;1.27;100.00
34500;BME280;20745;50.882;6.962;2023-01-26T06:38:50;101751.66;;;1.29;100.00
34500;BME280;20745;50.882;6.962;2023-01-26T06:41:21;101757.75;;;1.31;100.00
34500;BME280;20745;50.882;6.962;2023-01-26T06:43:47;101764.22;;;1.27;100.00
34500;BME280;20745;50.882;6.962;2023-01-26T06:46:15;101756.13;;;1.29;100.00
34500;BME280;20745;50.882;6.962;2023-01-26T06:48:41;101761.56;;;1.27;100.00
34500;BME280;20745;50.882;6.962;2023-01-26T06:53:43;101771.59;;;1.36;100.00
34500;BME280;20745;50.882;6.962;2023-01-26T06:56:13;101765.53;;;1.34;100.00
34500;BME280;20745;50.882;6.962;2023-01-26T06:58:42;101764.75;;;1.32;100.00
34500;BME280;20745;50.882;6.962;2023-01-26T07:01:09;101769.69;;;1.38;100.00
34500;BME280;20745;50.882;6.962;2023-01-26T07:03:37;101766.28;;;1.36;100.00
34500;BME280;20745;50.882;6.962;2023-01-26T07:06:04;101765.88;;;1.42;100.00
34500;BME280;20745;50.882;6.962;2023-01-26T07:08:31;101765.31;;;1.51;100.00
34500;BME280;20745;50.882;6.962;2023-01-26T07:10:58;101769.22;;;1.46;100.00
34500;BME280;20745;50.882;6.962;2023-01-26T07:13:24;101766.25;;;1.50;100.00
34500;BME280;20745;50.882;6.962;2023-01-26T07:15:51;101767.88;;;1.53;100.00
34500;BME280;20745;50.882;6.962;2023-01-26T07:18:20;101774.75;;;1.69;100.00
34500;BME280;20745;50.882;6.962;2023-01-26T07:20:46;101773.06;;;1.68;100.00
34500;BME280;20745;50.882;6.962;2023-01-26T07:23:23;101772.75;;;1.73;100.00
34500;BME280;20745;50.882;6.962;2023-01-26T07:25:49;101776.81;;;1.78;100.00
34500;BME280;20745;50.882;6.962;2023-01-26T07:28:15;101768.84;;;1.78;100.00
34500;BME280;20745;50.882;6.962;2023-01-26T07:30:42;101763.50;;;1.78;100.00
34500;BME280;20745;50.882;6.962;2023-01-26T07:33:14;101766.31;;;1.89;100.00
34500;BME280;20745;50.882;6.962;2023-01-26T07:35:43;101759.28;;;1.88;100.00
34500;BME280;20745;50.882;6.962;2023-01-26T07:38:09;101754.28;;;1.96;100.00
34500;BME280;20745;50.882;6.962;2023-01-26T07:40:36;101766.31;;;1.89;100.00
34500;BME280;20745;50.882;6.962;2023-01-26T07:43:03;101765.47;;;1.89;100.00
34500;BME280;20745;50.882;6.962;2023-01-26T07:45:30;101765.28;;;1.92;100.00
34500;BME280;20745;50.882;6.962;2023-01-26T07:47:57;101772.31;;;1.93;100.00
34500;BME280;20745;50.882;6.962;2023-01-26T07:50:24;101773.06;;;1.95;100.00
34500;BME280;20745;50.882;6.962;2023-01-26T07:52:52;101773.06;;;1.95;100.00
34500;BME280;20745;50.882;6.962;2023-01-26T07:55:18;101764.41;;;1.91;100.00
34500;BME280;20745;50.882;6.962;2023-01-26T07:57:49;101768.03;;;1.90;100.00
34500;BME280;20745;50.882;6.962;2023-01-26T08:00:15;101771.44;;;1.92;100.00
34500;BME280;20745;50.882;6.962;2023-01-26T08:02:42;101761.69;;;2.05;100.00
34500;BME280;20745;50.882;6.962;2023-01-26T08:05:09;101762.56;;;2.06;100.00
34500;BME280;20745;50.882;6.962;2023-01-26T08:07:35;101762.34;;;2.09;100.00
34500;BME280;20745;50.882;6.962;2023-01-26T08:10:02;101774.47;;;2.00;100.00
34500;BME280;20745;50.882;6.962;2023-01-26T08:12:29;101772.22;;;1.94;100.00
34500;BME280;20745;50.882;6.962;2023-01-26T08:14:55;101767.84;;;1.93;100.00
34500;BME280;20745;50.882;6.962;2023-01-26T08:17:22;101766.88;;;1.94;100.00
34500;BME280;20745;50.882;6.962;2023-01-26T08:19:49;101761.88;;;2.02;100.00
34500;BME280;20745;50.882;6.962;2023-01-26T08:22:16;101771.38;;;2.06;100.00
34500;BME280;20745;50.882;6.962;2023-01-26T08:24:42;101763.38;;;2.06;100.00
34500;BME280;20745;50.882;6.962;2023-01-26T08:27:09;101765.34;;;2.17;100.00
34500;BME280;20745;50.882;6.962;2023-01-26T08:29:35;101771.75;;;2.14;100.00
34500;BME280;20745;50.882;6.962;2023-01-26T08:32:01;101777.88;;;2.02;100.00
34500;BME280;20745;50.882;6.962;2023-01-26T08:34:28;101784.94;;;2.03;100.00
34500;BME280;20745;50.882;6.962;2023-01-26T08:36:54;101786.16;;;1.98;100.00
34500;BME280;20745;50.882;6.962;2023-01-26T08:39:21;101789.28;;;2.04;100.00
34500;BME280;20745;50.882;6.962;2023-01-26T08:41:47;101781.44;;;2.15;100.00
34500;BME280;20745;50.882;6.962;2023-01-26T08:44:13;101778.25;;;2.10;100.00
34500;BME280;20745;50.882;6.962;2023-01-26T08:46:41;101777.41;;;2.22;100.00
34500;BME280;20745;50.882;6.962;2023-01-26T08:49:08;101779.84;;;2.13;100.00
34500;BME280;20745;50.882;6.962;2023-01-26T08:51:34;101786.56;;;2.18;100.00
34500;BME280;20745;50.882;6.962;2023-01-26T08:54:03;101796.16;;;2.21;100.00
34500;BME280;20745;50.882;6.962;2023-01-26T08:56:31;101795.41;;;2.19;100.00
34500;BME280;20745;50.882;6.962;2023-01-26T08:58:57;101800.94;;;2.16;100.00
34500;BME280;20745;50.882;6.962;2023-01-26T09:01:24;101795.03;;;2.25;100.00
34500;BME280;20745;50.882;6.962;2023-01-26T09:03:52;101794.78;;;2.28;100.00
34500;BME280;20745;50.882;6.962;2023-01-26T09:06:20;101793.75;;;2.30;100.00
34500;BME280;20745;50.882;6.962;2023-01-26T09:08:47;101785.00;;;2.28;100.00
34500;BME280;20745;50.882;6.962;2023-01-26T09:11:13;101787.66;;;2.28;100.00
34500;BME280;20745;50.882;6.962;2023-01-26T09:13:48;101792.22;;;2.26;100.00
34500;BME280;20745;50.882;6.962;2023-01-26T09:16:18;101804.22;;;2.33;100.00
34500;BME280;20745;50.882;6.962;2023-01-26T09:18:47;101800.38;;;2.37;100.00
34500;BME280;20745;50.882;6.962;2023-01-26T09:21:14;101800.38;;;2.37;100.00
34500;BME280;20745;50.882;6.962;2023-01-26T09:23:40;101804.22;;;2.46;100.00
34500;BME280;20745;50.882;6.962;2023-01-26T09:26:07;101794.84;;;2.40;100.00
34500;BME280;20745;50.882;6.962;2023-01-26T09:28:33;101799.72;;;2.34;100.00
34500;BME280;20745;50.882;6.962;2023-01-26T09:31:06;101793.22;;;2.38;100.00
34500;BME280;20745;50.882;6.962;2023-01-26T09:33:37;101801.09;;;2.39;100.00
34500;BME280;20745;50.882;6.962;2023-01-26T09:36:08;101806.34;;;2.41;100.00
34500;BME280;20745;50.882;6.962;2023-01-26T09:38:35;101808.28;;;2.39;100.00
34500;BME280;20745;50.882;6.962;2023-01-26T09:41:06;101811.56;;;2.42;100.00
34500;BME280;20745;50.882;6.962;2023-01-26T09:43:37;101811.16;;;2.48;100.00
34500;BME280;20745;50.882;6.962;2023-01-26T09:46:18;101812.13;;;2.47;100.00
34500;BME280;20745;50.882;6.962;2023-01-26T09:48:48;101814.19;;;2.57;100.00
34500;BME280;20745;50.882;6.962;2023-01-26T09:51:34;101810.75;;;2.54;100.00
34500;BME280;20745;50.882;6.962;2023-01-26T09:54:08;101806.59;;;2.50;100.00
34500;BME280;20745;50.882;6.962;2023-01-26T09:56:41;101805.94;;;2.47;100.00
34500;BME280;20745;50.882;6.962;2023-01-26T09:59:17;101815.31;;;2.52;100.00
34500;BME280;20745;50.882;6.962;2023-01-26T10:01:49;101815.22;;;2.54;100.00
34500;BME280;20745;50.882;6.962;2023-01-26T10:04:41;101810.28;;;2.48;100.00
34500;BME280;20745;50.882;6.962;2023-01-26T10:07:09;101811.72;;;2.53;100.00
34500;BME280;20745;50.882;6.962;2023-01-26T10:09:37;101802.75;;;2.54;100.00
34500;BME280;20745;50.882;6.962;2023-01-26T10:12:07;101804.34;;;2.57;100.00
34500;BME280;20745;50.882;6.962;2023-01-26T10:14:40;101765.41;;;2.42;100.00
34500;BME280;20745;50.882;6.962;2023-01-26T10:17:14;101799.25;;;2.67;100.00
34500;BME280;20745;50.882;6.962;2023-01-26T10:19:51;101802.97;;;2.64;100.00
34500;BME280;20745;50.882;6.962;2023-01-26T10:24:50;101800.97;;;2.68;100.00
34500;BME280;20745;50.882;6.962;2023-01-26T10:27:18;101798.72;;;2.74;100.00
34500;BME280;20745;50.882;6.962;2023-01-26T10:29:44;101797.44;;;2.67;100.00
34500;BME280;20745;50.882;6.962;2023-01-26T10:32:15;101795.94;;;2.76;100.00
34500;BME280;20745;50.882;6.962;2023-01-26T10:34:43;101790.72;;;2.74;100.00
34500;BME280;20745;50.882;6.962;2023-01-26T10:37:15;101786.13;;;2.76;100.00
34500;BME280;20745;50.882;6.962;2023-01-26T10:40:00;101780.91;;;2.75;100.00
34500;BME280;20745;50.882;6.962;2023-01-26T10:42:31;101776.84;;;2.82;100.00
34500;BME280;20745;50.882;6.962;2023-01-26T10:44:58;101775.25;;;2.79;100.00
34500;BME280;20745;50.882;6.962;2023-01-26T10:47:27;101776.75;;;2.83;100.00
34500;BME280;20745;50.882;6.962;2023-01-26T10:50:12;101776.53;;;2.86;100.00
34500;BME280;20745;50.882;6.962;2023-01-26T10:52:57;101768.09;;;2.80;100.00
34500;BME280;20745;50.882;6.962;2023-01-26T10:55:26;101770.53;;;2.83;100.00
34500;BME280;20745;50.882;6.962;2023-01-26T10:57:53;101764.28;;;2.84;100.00
34500;BME280;20745;50.882;6.962;2023-01-26T11:03:35;101761.69;;;2.95;100.00
34500;BME280;20745;50.882;6.962;2023-01-26T11:05:36;101765.84;;;2.99;100.00
34500;BME280;20745;50.882;6.962;2023-01-26T11:08:08;101755.84;;;3.02;100.00
34500;BME280;20745;50.882;6.962;2023-01-26T11:10:52;101749.63;;;3.02;100.00
34500;BME280;20745;50.882;6.962;2023-01-26T11:13:19;101746.22;;;3.12;100.00
34500;BME280;20745;50.882;6.962;2023-01-26T11:15:47;101747.91;;;3.13;100.00
34500;BME280;20745;50.882;6.962;2023-01-26T11:18:29;101743.66;;;3.11;100.00
34500;BME280;20745;50.882;6.962;2023-01-26T11:24:04;101741.81;;;3.11;100.00
34500;BME280;20745;50.882;6.962;2023-01-26T11:29:27;101742.28;;;3.05;100.00
34500;BME280;20745;50.882;6.962;2023-01-26T11:45:54;101735.97;;;3.06;100.00
34500;BME280;20745;50.882;6.962;2023-01-26T11:48:26;101733.06;;;3.09;100.00
34500;BME280;20745;50.882;6.962;2023-01-26T11:51:08;101725.03;;;3.22;100.00
34500;BME280;20745;50.882;6.962;2023-01-26T11:56:38;101716.69;;;3.26;100.00
34500;BME280;20745;50.882;6.962;2023-01-26T11:59:11;101716.06;;;3.23;100.00
34500;BME280;20745;50.882;6.962;2023-01-26T12:01:44;101709.03;;;3.22;100.00
34500;BME280;20745;50.882;6.962;2023-01-26T12:04:17;101707.81;;;3.26;100.00
34500;BME280;20745;50.882;6.962;2023-01-26T12:06:45;101709.03;;;3.22;100.00
34500;BME280;20745;50.882;6.962;2023-01-26T12:09:18;101706.56;;;3.19;100.00
34500;BME280;20745;50.882;6.962;2023-01-26T12:11:51;101712.88;;;3.18;100.00
34500;BME280;20745;50.882;6.962;2023-01-26T12:14:22;101709.69;;;3.13;100.00
34500;BME280;20745;50.882;6.962;2023-01-26T12:16:58;101711.06;;;3.06;100.00
34500;BME280;20745;50.882;6.962;2023-01-26T12:19:49;101707.31;;;3.08;100.00
34500;BME280;20745;50.882;6.962;2023-01-26T12:24:50;101705.41;;;3.10;100.00
34500;BME280;20745;50.882;6.962;2023-01-26T12:27:41;101703.06;;;3.06;100.00
34500;BME280;20745;50.882;6.962;2023-01-26T12:32:47;101697.53;;;3.09;100.00
34500;BME280;20745;50.882;6.962;2023-01-26T12:35:13;101684.06;;;3.10;100.00
34500;BME280;20745;50.882;6.962;2023-01-26T12:37:45;101679.41;;;2.89;100.00
34500;BME280;20745;50.882;6.962;2023-01-26T12:40:21;101681.00;;;2.91;100.00
34500;BME280;20745;50.882;6.962;2023-01-26T12:42:54;101686.97;;;2.95;100.00
34500;BME280;20745;50.882;6.962;2023-01-26T12:45:27;101676.22;;;2.96;100.00
34500;BME280;20745;50.882;6.962;2023-01-26T12:48:03;101670.97;;;2.95;100.00
34500;BME280;20745;50.882;6.962;2023-01-26T12:53:23;101677.56;;;3.02;100.00
34500;BME280;20745;50.882;6.962;2023-01-26T12:58:26;101665.50;;;3.09;100.00
34500;BME280;20745;50.882;6.962;2023-01-26T13:03:27;101665.44;;;3.21;100.00
34500;BME280;20745;50.882;6.962;2023-01-26T13:10:58;101654.38;;;3.15;100.00
34500;BME280;20745;50.882;6.962;2023-01-26T13:18:49;101649.25;;;3.12;100.00
34500;BME280;20745;50.882;6.962;2023-01-26T13:21:31;101658.25;;;3.11;100.00
34500;BME280;20745;50.882;6.962;2023-01-26T13:31:51;101654.16;;;3.18;100.00
34500;BME280;20745;50.882;6.962;2023-01-26T13:34:23;101651.38;;;3.19;100.00
34500;BME280;20745;50.882;6.962;2023-01-26T13:36:51;101663.97;;;3.17;100.00
34500;BME280;20745;50.882;6.962;2023-01-26T13:41:46;101658.72;;;3.28;100.00
34500;BME280;20745;50.882;6.962;2023-01-26T13:44:14;101663.09;;;3.29;100.00
34500;BME280;20745;50.882;6.962;2023-01-26T13:46:44;101646.22;;;3.29;100.00
34500;BME280;20745;50.882;6.962;2023-01-26T13:49:26;101642.34;;;3.33;100.00
34500;BME280;20745;50.882;6.962;2023-01-26T13:52:02;101641.41;;;3.34;100.00
34500;BME280;20745;50.882;6.962;2023-01-26T13:54:28;101657.41;;;3.34;100.00
34500;BME280;20745;50.882;6.962;2023-01-26T13:57:02;101654.75;;;3.34;100.00
34500;BME280;20745;50.882;6.962;2023-01-26T13:59:29;101658.47;;;3.31;100.00
34500;BME280;20745;50.882;6.962;2023-01-26T14:01:56;101663.91;;;3.30;100.00
34500;BME280;20745;50.882;6.962;2023-01-26T14:06:57;101663.09;;;3.29;100.00
34500;BME280;20745;50.882;6.962;2023-01-26T14:09:24;101658.97;;;3.13;100.00
34500;BME280;20745;50.882;6.962;2023-01-26T14:11:54;101657.16;;;3.13;100.00
34500;BME280;20745;50.882;6.962;2023-01-26T14:14:23;101652.31;;;3.18;100.00
34500;BME280;20745;50.882;6.962;2023-01-26T14:16:49;101660.97;;;3.22;100.00
34500;BME280;20745;50.882;6.962;2023-01-26T14:19:17;101665.13;;;3.26;100.00
34500;BME280;20745;50.882;6.962;2023-01-26T14:21:52;101663.97;;;3.17;100.00
34500;BME280;20745;50.882;6.962;2023-01-26T14:24:24;101669.09;;;3.20;100.00